sensor_id;sensor_type;location;lat;lon;timestamp;temperature;humidity
35129;DHT22;21301;43.626;10.580;2023-04-15T00:01:22;13.80;99.90
35129;DHT22;21301;43.626;10.580;2023-04-15T00:03:53;13.40;99.90
35129;DHT22;21301;43.626;10.580;2023-04-15T00:06:22;13.10;99.90
35129;DHT22;21301;43.626;10.580;2023-04-15T00:08:48;12.70;99.90
35129;DHT22;21301;43.626;10.580;2023-04-15T00:11:16;12.50;99.90
35129;DHT22;21301;43.626;10.580;2023-04-15T00:13:42;12.30;99.90
35129;DHT22;21301;43.626;10.580;2023-04-15T00:16:09;12.20;99.90
35129;DHT22;21301;43.626;10.580;2023-04-15T00:18:35;12.00;99.90
35129;DHT22;21301;43.626;10.580;2023-04-15T00:21:03;11.90;99.90
35129;DHT22;21301;43.626;10.580;2023-04-15T00:23:29;11.70;99.90
35129;DHT22;21301;43.626;10.580;2023-04-15T00:25:55;11.70;99.90
35129;DHT22;21301;43.626;10.580;2023-04-15T00:28:21;11.70;99.90
35129;DHT22;21301;43.626;10.580;2023-04-15T00:30:47;11.60;99.90
35129;DHT22;21301;43.626;10.580;2023-04-15T00:33:13;11.50;99.90
35129;DHT22;21301;43.626;10.580;2023-04-15T00:35:41;11.50;99.90
35129;DHT22;21301;43.626;10.580;2023-04-15T00:38:07;11.60;99.90
35129;DHT22;21301;43.626;10.580;2023-04-15T00:40:33;11.50;99.90
35129;DHT22;21301;43.626;10.580;2023-04-15T00:43:00;11.40;99.90
35129;DHT22;21301;43.626;10.580;2023-04-15T00:45:26;11.30;99.90
35129;DHT22;21301;43.626;10.580;2023-04-15T00:47:55;11.30;99.90
35129;DHT22;21301;43.626;10.580;2023-04-15T00:50:21;11.30;99.90
35129;DHT22;21301;43.626;10.580;2023-04-15T00:52:47;11.30;99.90
35129;DHT22;21301;43.626;10.580;2023-04-15T00:55:14;11.30;99.90
35129;DHT22;21301;43.626;10.580;2023-04-15T00:57:40;11.30;99.90
35129;DHT22;21301;43.626;10.580;2023-04-15T01:00:06;11.30;99.90
35129;DHT22;21301;43.626;10.580;2023-04-15T01:02:34;11.30;99.90
35129;DHT22;21301;43.626;10.580;2023-04-15T01:05:01;11.40;99.90
35129;DHT22;21301;43.626;10.580;2023-04-15T01:07:28;11.30;99.90
35129;DHT22;21301;43.626;10.580;2023-04-15T01:09:54;11.30;99.90
35129;DHT22;21301;43.626;10.580;2023-04-15T01:12:20;11.30;99.90
35129;DHT22;21301;43.626;10.580;2023-04-15T01:14:46;11.30;99.90
35129;DHT22;21301;43.626;10.580;2023-04-15T01:17:12;11.30;99.90
35129;DHT22;21301;43.626;10.580;2023-04-15T01:19:39;11.30;99.90
35129;DHT22;21301;43.626;10.580;2023-04-15T01:22:07;11.30;99.90
35129;DHT22;21301;43.626;10.580;2023-04-15T01:24:33;11.30;99.90
35129;DHT22;21301;43.626;10.580;2023-04-15T01:27:00;11.40;99.90
35129;DHT22;21301;43.626;10.580;2023-04-15T01:29:26;11.40;99.90
35129;DHT22;21301;43.626;10.580;2023-04-15T01:31:53;11.40;99.90
35129;DHT22;21301;43.626;10.580;2023-04-15T01:34:19;11.50;99.90
35129;DHT22;21301;43.626;10.580;2023-04-15T01:36:45;11.70;99.90
35129;DHT22;21301;43.626;10.580;2023-04-15T01:39:13;11.90;99.90
35129;DHT22;21301;43.626;10.580;2023-04-15T01:41:39;11.90;99.90
35129;DHT22;21301;43.626;10.580;2023-04-15T01:44:07;11.90;99.90
35129;DHT22;21301;43.626;10.580;2023-04-15T01:46:33;12.10;99.90
35129;DHT22;21301;43.626;10.580;2023-04-15T01:48:59;12.10;99.90
35129;DHT22;21301;43.626;10.580;2023-04-15T01:51:25;12.20;99.90
35129;DHT22;21301;43.626;10.580;2023-04-15T01:53:52;12.20;99.90
35129;DHT22;21301;43.626;10.580;2023-04-15T01:56:18;12.20;99.90
35129;DHT22;21301;43.626;10.580;2023-04-15T01:58:44;12.20;99.90
35129;DHT22;21301;43.626;10.580;2023-04-15T02:01:10;12.20;99.90
35129;DHT22;21301;43.626;10.580;2023-04-15T02:03:36;12.20;99.90
35129;DHT22;21301;43.626;10.580;2023-04-15T02:06:03;12.20;99.90
35129;DHT22;21301;43.626;10.580;2023-04-15T02:08:29;12.20;99.90
35129;DHT22;21301;43.626;10.580;2023-04-15T02:10:55;12.10;99.90
35129;DHT22;21301;43.626;10.580;2023-04-15T02:13:21;11.90;99.90
35129;DHT22;21301;43.626;10.580;2023-04-15T02:15:50;11.90;99.90
35129;DHT22;21301;43.626;10.580;2023-04-15T02:18:20;11.90;99.90
35129;DHT22;21301;43.626;10.580;2023-04-15T02:20:46;11.90;99.90
35129;DHT22;21301;43.626;10.580;2023-04-15T02:23:15;11.90;99.90
35129;DHT22;21301;43.626;10.580;2023-04-15T02:25:46;12.00;99.90
35129;DHT22;21301;43.626;10.580;2023-04-15T02:28:14;11.90;99.90
35129;DHT22;21301;43.626;10.580;2023-04-15T02:30:47;11.80;99.90
35129;DHT22;21301;43.626;10.580;2023-04-15T02:33:13;11.80;99.90
35129;DHT22;21301;43.626;10.580;2023-04-15T02:35:39;11.60;99.90
35129;DHT22;21301;43.626;10.580;2023-04-15T02:38:08;11.50;99.90
35129;DHT22;21301;43.626;10.580;2023-04-15T02:40:34;11.50;99.90
35129;DHT22;21301;43.626;10.580;2023-04-15T02:43:00;11.50;99.90
35129;DHT22;21301;43.626;10.580;2023-04-15T02:45:27;11.60;99.90
35129;DHT22;21301;43.626;10.580;2023-04-15T02:47:53;11.60;99.90
35129;DHT22;21301;43.626;10.580;2023-04-15T02:50:19;11.50;99.90
35129;DHT22;21301;43.626;10.580;2023-04-15T02:52:45;11.60;99.90
35129;DHT22;21301;43.626;10.580;2023-04-15T02:55:11;11.60;99.90
35129;DHT22;21301;43.626;10.580;2023-04-15T02:57:37;11.60;99.90
35129;DHT22;21301;43.626;10.580;2023-04-15T03:00:07;11.60;99.90
35129;DHT22;21301;43.626;10.580;2023-04-15T03:02:38;11.50;99.90
35129;DHT22;21301;43.626;10.580;2023-04-15T03:05:04;11.40;99.90
35129;DHT22;21301;43.626;10.580;2023-04-15T03:07:31;11.30;99.90
35129;DHT22;21301;43.626;10.580;2023-04-15T03:09:58;11.20;99.90
35129;DHT22;21301;43.626;10.580;2023-04-15T03:12:24;11.10;99.90
35129;DHT22;21301;43.626;10.580;2023-04-15T03:14:52;10.90;99.90
35129;DHT22;21301;43.626;10.580;2023-04-15T03:17:22;10.80;99.90
35129;DHT22;21301;43.626;10.580;2023-04-15T03:19:48;10.70;99.90
35129;DHT22;21301;43.626;10.580;2023-04-15T03:22:14;10.70;99.90
35129;DHT22;21301;43.626;10.580;2023-04-15T03:24:40;10.60;99.90
35129;DHT22;21301;43.626;10.580;2023-04-15T03:27:09;10.60;99.90
35129;DHT22;21301;43.626;10.580;2023-04-15T03:29:35;10.60;99.90
35129;DHT22;21301;43.626;10.580;2023-04-15T03:32:02;10.60;99.90
35129;DHT22;21301;43.626;10.580;2023-04-15T03:34:31;10.60;99.90
35129;DHT22;21301;43.626;10.580;2023-04-15T03:36:58;10.50;99.90
35129;DHT22;21301;43.626;10.580;2023-04-15T03:39:23;10.50;99.90
35129;DHT22;21301;43.626;10.580;2023-04-15T03:41:49;10.50;99.90
35129;DHT22;21301;43.626;10.580;2023-04-15T03:44:15;10.50;99.90
35129;DHT22;21301;43.626;10.580;2023-04-15T03:46:41;10.40;99.90
35129;DHT22;21301;43.626;10.580;2023-04-15T03:49:07;10.50;99.90
35129;DHT22;21301;43.626;10.580;2023-04-15T03:51:32;10.40;99.90
35129;DHT22;21301;43.626;10.580;2023-04-15T03:53:58;10.40;99.90
35129;DHT22;21301;43.626;10.580;2023-04-15T03:56:24;10.40;99.90
35129;DHT22;21301;43.626;10.580;2023-04-15T03:58:50;10.40;99.90
35129;DHT22;21301;43.626;10.580;2023-04-15T04:01:16;10.30;99.90
35129;DHT22;21301;43.626;10.580;2023-04-15T04:03:42;10.30;99.90
35129;DHT22;21301;43.626;10.580;2023-04-15T04:06:08;10.20;99.90
35129;DHT22;21301;43.626;10.580;2023-04-15T04:08:34;10.20;99.90
35129;DHT22;21301;43.626;10.580;2023-04-15T04:11:00;10.20;99.90
35129;DHT22;21301;43.626;10.580;2023-04-15T04:13:25;10.20;99.90
35129;DHT22;21301;43.626;10.580;2023-04-15T04:15:51;10.10;99.90
35129;DHT22;21301;43.626;10.580;2023-04-15T04:18:17;10.10;99.90
35129;DHT22;21301;43.626;10.580;2023-04-15T04:20:43;10.10;99.90
35129;DHT22;21301;43.626;10.580;2023-04-15T04:23:08;10.10;99.90
35129;DHT22;21301;43.626;10.580;2023-04-15T04:25:34;10.10;99.90
35129;DHT22;21301;43.626;10.580;2023-04-15T04:28:01;10.10;99.90
35129;DHT22;21301;43.626;10.580;2023-04-15T04:30:26;10.10;99.90
35129;DHT22;21301;43.626;10.580;2023-04-15T04:32:52;10.10;99.90
35129;DHT22;21301;43.626;10.580;2023-04-15T04:35:18;10.10;99.90
35129;DHT22;21301;43.626;10.580;2023-04-15T04:37:44;10.10;99.90
35129;DHT22;21301;43.626;10.580;2023-04-15T04:40:10;10.10;99.90
35129;DHT22;21301;43.626;10.580;2023-04-15T04:42:36;10.00;99.90
35129;DHT22;21301;43.626;10.580;2023-04-15T04:45:01;10.00;99.90
35129;DHT22;21301;43.626;10.580;2023-04-15T04:47:27;9.90;99.90
35129;DHT22;21301;43.626;10.580;2023-04-15T04:49:53;9.90;99.90
35129;DHT22;21301;43.626;10.580;2023-04-15T04:52:19;9.90;99.90
35129;DHT22;21301;43.626;10.580;2023-04-15T04:54:44;9.90;99.90
35129;DHT22;21301;43.626;10.580;2023-04-15T04:57:10;9.90;99.90
35129;DHT22;21301;43.626;10.580;2023-04-15T04:59:38;9.90;99.90
35129;DHT22;21301;43.626;10.580;2023-04-15T05:02:04;9.80;99.90
35129;DHT22;21301;43.626;10.580;2023-04-15T05:04:29;9.90;99.90
35129;DHT22;21301;43.626;10.580;2023-04-15T05:06:57;10.00;99.90
35129;DHT22;21301;43.626;10.580;2023-04-15T05:09:23;9.90;99.90
35129;DHT22;21301;43.626;10.580;2023-04-15T05:11:49;9.90;99.90
35129;DHT22;21301;43.626;10.580;2023-04-15T05:14:15;9.90;99.90
35129;DHT22;21301;43.626;10.580;2023-04-15T05:16:41;9.90;99.90
35129;DHT22;21301;43.626;10.580;2023-04-15T05:19:06;9.90;99.90
35129;DHT22;21301;43.626;10.580;2023-04-15T05:21:32;9.90;99.90
35129;DHT22;21301;43.626;10.580;2023-04-15T05:23:58;9.90;99.90
35129;DHT22;21301;43.626;10.580;2023-04-15T05:26:24;9.90;99.90
35129;DHT22;21301;43.626;10.580;2023-04-15T05:28:49;9.90;99.90
35129;DHT22;21301;43.626;10.580;2023-04-15T05:31:15;9.80;99.90
35129;DHT22;21301;43.626;10.580;2023-04-15T05:33:41;9.80;99.90
35129;DHT22;21301;43.626;10.580;2023-04-15T05:36:07;9.80;99.90
35129;DHT22;21301;43.626;10.580;2023-04-15T05:38:33;9.80;99.90
35129;DHT22;21301;43.626;10.580;2023-04-15T05:40:59;9.80;99.90
35129;DHT22;21301;43.626;10.580;2023-04-15T05:43:25;9.80;99.90
35129;DHT22;21301;43.626;10.580;2023-04-15T05:45:51;9.80;99.90
35129;DHT22;21301;43.626;10.580;2023-04-15T05:48:16;9.80;99.90
35129;DHT22;21301;43.626;10.580;2023-04-15T05:50:42;9.80;99.90
35129;DHT22;21301;43.626;10.580;2023-04-15T05:53:08;9.80;99.90
35129;DHT22;21301;43.626;10.580;2023-04-15T05:55:34;9.80;99.90
35129;DHT22;21301;43.626;10.580;2023-04-15T05:58:00;9.90;99.90
35129;DHT22;21301;43.626;10.580;2023-04-15T06:00:25;9.90;99.90
35129;DHT22;21301;43.626;10.580;2023-04-15T06:02:51;9.90;99.90
35129;DHT22;21301;43.626;10.580;2023-04-15T06:05:17;9.90;99.90
35129;DHT22;21301;43.626;10.580;2023-04-15T06:07:43;9.90;99.90
35129;DHT22;21301;43.626;10.580;2023-04-15T06:10:09;9.90;99.90
35129;DHT22;21301;43.626;10.580;2023-04-15T06:12:35;9.90;99.90
35129;DHT22;21301;43.626;10.580;2023-04-15T06:15:01;10.00;99.90
35129;DHT22;21301;43.626;10.580;2023-04-15T06:17:27;10.00;99.90
35129;DHT22;21301;43.626;10.580;2023-04-15T06:19:53;10.00;99.90
35129;DHT22;21301;43.626;10.580;2023-04-15T06:22:23;10.00;99.90
35129;DHT22;21301;43.626;10.580;2023-04-15T06:24:49;10.00;99.90
35129;DHT22;21301;43.626;10.580;2023-04-15T06:27:16;10.00;99.90
35129;DHT22;21301;43.626;10.580;2023-04-15T06:29:42;9.90;99.90
35129;DHT22;21301;43.626;10.580;2023-04-15T06:32:08;9.90;99.90
35129;DHT22;21301;43.626;10.580;2023-04-15T06:34:34;9.90;99.90
35129;DHT22;21301;43.626;10.580;2023-04-15T06:37:00;10.00;99.90
35129;DHT22;21301;43.626;10.580;2023-04-15T06:39:26;10.00;99.90
35129;DHT22;21301;43.626;10.580;2023-04-15T06:41:52;10.00;99.90
35129;DHT22;21301;43.626;10.580;2023-04-15T06:44:20;10.10;99.90
35129;DHT22;21301;43.626;10.580;2023-04-15T06:46:46;10.00;99.90
35129;DHT22;21301;43.626;10.580;2023-04-15T06:49:11;10.00;99.90
35129;DHT22;21301;43.626;10.580;2023-04-15T06:51:37;10.00;99.90
35129;DHT22;21301;43.626;10.580;2023-04-15T06:54:03;10.00;99.90
35129;DHT22;21301;43.626;10.580;2023-04-15T06:56:31;10.10;99.90
35129;DHT22;21301;43.626;10.580;2023-04-15T06:58:57;10.10;99.90
35129;DHT22;21301;43.626;10.580;2023-04-15T07:01:23;10.10;99.90
35129;DHT22;21301;43.626;10.580;2023-04-15T07:03:49;10.20;99.90
35129;DHT22;21301;43.626;10.580;2023-04-15T07:06:15;10.20;99.90
35129;DHT22;21301;43.626;10.580;2023-04-15T07:08:40;10.10;99.90
35129;DHT22;21301;43.626;10.580;2023-04-15T07:11:06;10.10;99.90
35129;DHT22;21301;43.626;10.580;2023-04-15T07:13:33;10.00;99.90
35129;DHT22;21301;43.626;10.580;2023-04-15T07:15:59;10.00;99.90
35129;DHT22;21301;43.626;10.580;2023-04-15T07:18:24;10.00;99.90
35129;DHT22;21301;43.626;10.580;2023-04-15T07:20:50;10.00;99.90
35129;DHT22;21301;43.626;10.580;2023-04-15T07:23:16;10.10;99.90
35129;DHT22;21301;43.626;10.580;2023-04-15T07:25:42;10.10;99.90
35129;DHT22;21301;43.626;10.580;2023-04-15T07:28:08;10.10;99.90
35129;DHT22;21301;43.626;10.580;2023-04-15T07:30:34;10.30;99.90
35129;DHT22;21301;43.626;10.580;2023-04-15T07:33:00;10.40;99.90
35129;DHT22;21301;43.626;10.580;2023-04-15T07:35:26;10.40;99.90
35129;DHT22;21301;43.626;10.580;2023-04-15T07:37:52;10.40;99.90
35129;DHT22;21301;43.626;10.580;2023-04-15T07:40:18;10.40;99.90
35129;DHT22;21301;43.626;10.580;2023-04-15T07:42:44;10.50;99.90
35129;DHT22;21301;43.626;10.580;2023-04-15T07:45:10;10.50;99.90
35129;DHT22;21301;43.626;10.580;2023-04-15T07:47:37;10.60;99.90
35129;DHT22;21301;43.626;10.580;2023-04-15T07:50:03;10.80;99.90
35129;DHT22;21301;43.626;10.580;2023-04-15T07:52:29;11.00;99.90
35129;DHT22;21301;43.626;10.580;2023-04-15T07:54:55;10.90;99.90
35129;DHT22;21301;43.626;10.580;2023-04-15T07:57:21;10.90;99.90
35129;DHT22;21301;43.626;10.580;2023-04-15T07:59:47;10.90;99.90
35129;DHT22;21301;43.626;10.580;2023-04-15T08:02:12;11.40;99.90
35129;DHT22;21301;43.626;10.580;2023-04-15T08:04:38;11.70;99.90
35129;DHT22;21301;43.626;10.580;2023-04-15T08:07:05;11.80;99.90
35129;DHT22;21301;43.626;10.580;2023-04-15T08:09:31;11.60;99.90
35129;DHT22;21301;43.626;10.580;2023-04-15T08:11:57;11.90;99.90
35129;DHT22;21301;43.626;10.580;2023-04-15T08:14:23;12.00;99.90
35129;DHT22;21301;43.626;10.580;2023-04-15T08:16:49;12.30;99.90
35129;DHT22;21301;43.626;10.580;2023-04-15T08:19:15;12.10;99.90
35129;DHT22;21301;43.626;10.580;2023-04-15T08:21:41;12.10;99.90
35129;DHT22;21301;43.626;10.580;2023-04-15T08:24:07;12.20;99.90
35129;DHT22;21301;43.626;10.580;2023-04-15T08:26:33;12.10;99.90
35129;DHT22;21301;43.626;10.580;2023-04-15T08:28:59;12.10;99.90
35129;DHT22;21301;43.626;10.580;2023-04-15T08:31:26;12.00;99.90
35129;DHT22;21301;43.626;10.580;2023-04-15T08:33:56;12.20;99.90
35129;DHT22;21301;43.626;10.580;2023-04-15T08:36:22;12.40;99.90
35129;DHT22;21301;43.626;10.580;2023-04-15T08:38:47;12.70;99.90
35129;DHT22;21301;43.626;10.580;2023-04-15T08:41:26;12.70;99.90
35129;DHT22;21301;43.626;10.580;2023-04-15T08:44:00;12.50;99.90
35129;DHT22;21301;43.626;10.580;2023-04-15T08:46:26;12.40;99.90
35129;DHT22;21301;43.626;10.580;2023-04-15T08:48:56;12.50;99.90
35129;DHT22;21301;43.626;10.580;2023-04-15T08:51:22;12.50;99.90
35129;DHT22;21301;43.626;10.580;2023-04-15T08:53:48;12.60;99.90
35129;DHT22;21301;43.626;10.580;2023-04-15T08:56:15;12.60;99.90
35129;DHT22;21301;43.626;10.580;2023-04-15T08:58:45;13.10;99.90
35129;DHT22;21301;43.626;10.580;2023-04-15T09:01:12;13.20;99.90
35129;DHT22;21301;43.626;10.580;2023-04-15T09:03:38;13.10;99.90
35129;DHT22;21301;43.626;10.580;2023-04-15T09:06:05;13.20;99.90
35129;DHT22;21301;43.626;10.580;2023-04-15T09:08:32;13.40;99.90
35129;DHT22;21301;43.626;10.580;2023-04-15T09:11:00;13.40;99.90
35129;DHT22;21301;43.626;10.580;2023-04-15T09:13:25;13.40;99.90
35129;DHT22;21301;43.626;10.580;2023-04-15T09:15:52;13.30;99.90
35129;DHT22;21301;43.626;10.580;2023-04-15T09:18:34;13.60;99.90
35129;DHT22;21301;43.626;10.580;2023-04-15T09:21:08;13.80;99.90
35129;DHT22;21301;43.626;10.580;2023-04-15T09:23:37;14.10;99.90
35129;DHT22;21301;43.626;10.580;2023-04-15T09:26:04;14.20;99.90
35129;DHT22;21301;43.626;10.580;2023-04-15T09:28:30;14.10;99.90
35129;DHT22;21301;43.626;10.580;2023-04-15T09:30:57;14.30;99.90
35129;DHT22;21301;43.626;10.580;2023-04-15T09:33:24;14.30;99.90
35129;DHT22;21301;43.626;10.580;2023-04-15T09:36:02;14.80;99.90
35129;DHT22;21301;43.626;10.580;2023-04-15T09:38:29;14.80;99.90
35129;DHT22;21301;43.626;10.580;2023-04-15T09:40:56;15.40;99.90
35129;DHT22;21301;43.626;10.580;2023-04-15T09:43:28;15.50;99.90
35129;DHT22;21301;43.626;10.580;2023-04-15T09:46:01;15.80;99.90
35129;DHT22;21301;43.626;10.580;2023-04-15T09:48:27;15.50;99.90
35129;DHT22;21301;43.626;10.580;2023-04-15T09:50:57;15.00;99.90
35129;DHT22;21301;43.626;10.580;2023-04-15T09:53:24;15.30;99.90
35129;DHT22;21301;43.626;10.580;2023-04-15T09:55:51;15.10;99.90
35129;DHT22;21301;43.626;10.580;2023-04-15T09:58:19;15.30;99.90
35129;DHT22;21301;43.626;10.580;2023-04-15T10:00:47;15.50;99.90
35129;DHT22;21301;43.626;10.580;2023-04-15T10:03:25;15.60;99.90
35129;DHT22;21301;43.626;10.580;2023-04-15T10:05:53;15.90;99.90
35129;DHT22;21301;43.626;10.580;2023-04-15T10:08:22;15.60;99.90
35129;DHT22;21301;43.626;10.580;2023-04-15T10:10:49;15.60;99.90
35129;DHT22;21301;43.626;10.580;2023-04-15T10:13:18;15.30;99.90
35129;DHT22;21301;43.626;10.580;2023-04-15T10:18:37;15.90;99.90
35129;DHT22;21301;43.626;10.580;2023-04-15T10:21:06;15.80;99.90
35129;DHT22;21301;43.626;10.580;2023-04-15T10:23:33;16.00;99.90
35129;DHT22;21301;43.626;10.580;2023-04-15T10:25:59;15.80;99.90
35129;DHT22;21301;43.626;10.580;2023-04-15T10:28:26;16.10;99.90
35129;DHT22;21301;43.626;10.580;2023-04-15T10:30:52;16.20;99.90
35129;DHT22;21301;43.626;10.580;2023-04-15T10:33:22;16.40;99.90
35129;DHT22;21301;43.626;10.580;2023-04-15T10:35:50;16.40;99.90
35129;DHT22;21301;43.626;10.580;2023-04-15T10:41:25;16.80;99.90
35129;DHT22;21301;43.626;10.580;2023-04-15T10:46:36;17.10;99.90
35129;DHT22;21301;43.626;10.580;2023-04-15T10:49:11;17.20;99.90
35129;DHT22;21301;43.626;10.580;2023-04-15T10:51:39;17.40;99.90
35129;DHT22;21301;43.626;10.580;2023-04-15T10:57:13;17.40;99.90
35129;DHT22;21301;43.626;10.580;2023-04-15T11:00:18;17.70;99.90
35129;DHT22;21301;43.626;10.580;2023-04-15T11:02:57;17.90;99.90
35129;DHT22;21301;43.626;10.580;2023-04-15T11:08:15;17.60;99.90
35129;DHT22;21301;43.626;10.580;2023-04-15T11:15:40;17.50;99.90
35129;DHT22;21301;43.626;10.580;2023-04-15T11:18:24;17.60;99.90
35129;DHT22;21301;43.626;10.580;2023-04-15T11:23:36;17.70;99.90
35129;DHT22;21301;43.626;10.580;2023-04-15T11:26:04;18.00;99.90
35129;DHT22;21301;43.626;10.580;2023-04-15T11:28:32;18.00;99.90
35129;DHT22;21301;43.626;10.580;2023-04-15T11:31:13;18.20;99.90
35129;DHT22;21301;43.626;10.580;2023-04-15T11:33:52;18.70;99.90
35129;DHT22;21301;43.626;10.580;2023-04-15T11:36:18;19.00;99.90
35129;DHT22;21301;43.626;10.580;2023-04-15T11:38:47;19.10;99.90
35129;DHT22;21301;43.626;10.580;2023-04-15T11:41:13;19.30;99.90
35129;DHT22;21301;43.626;10.580;2023-04-15T11:43:41;19.50;99.90
35129;DHT22;21301;43.626;10.580;2023-04-15T11:46:07;19.40;99.90
35129;DHT22;21301;43.626;10.580;2023-04-15T11:48:35;19.20;99.90
35129;DHT22;21301;43.626;10.580;2023-04-15T11:51:04;19.40;99.90
35129;DHT22;21301;43.626;10.580;2023-04-15T11:56:20;19.40;99.90
35129;DHT22;21301;43.626;10.580;2023-04-15T11:58:47;19.10;99.90
35129;DHT22;21301;43.626;10.580;2023-04-15T12:01:16;18.80;99.90
35129;DHT22;21301;43.626;10.580;2023-04-15T12:03:46;18.40;99.90
35129;DHT22;21301;43.626;10.580;2023-04-15T12:09:02;18.00;99.90
35129;DHT22;21301;43.626;10.580;2023-04-15T12:11:42;18.50;99.90
35129;DHT22;21301;43.626;10.580;2023-04-15T12:14:18;18.30;99.90
35129;DHT22;21301;43.626;10.580;2023-04-15T12:16:46;18.90;99.90
35129;DHT22;21301;43.626;10.580;2023-04-15T12:19:18;19.00;99.90
35129;DHT22;21301;43.626;10.580;2023-04-15T12:21:47;19.20;99.90
35129;DHT22;21301;43.626;10.580;2023-04-15T12:24:13;19.20;99.90
35129;DHT22;21301;43.626;10.580;2023-04-15T12:26:44;19.20;99.90
35129;DHT22;21301;43.626;10.580;2023-04-15T12:29:11;19.10;99.90
35129;DHT22;21301;43.626;10.580;2023-04-15T12:31:46;19.40;99.90
35129;DHT22;21301;43.626;10.580;2023-04-15T12:34:13;19.40;99.90
35129;DHT22;21301;43.626;10.580;2023-04-15T12:36:39;19.20;99.90
35129;DHT22;21301;43.626;10.580;2023-04-15T12:39:05;19.30;99.90
35129;DHT22;21301;43.626;10.580;2023-04-15T12:41:32;19.20;99.90
35129;DHT22;21301;43.626;10.580;2023-04-15T12:43:58;19.00;99.90
35129;DHT22;21301;43.626;10.580;2023-04-15T12:46:24;18.50;99.90
35129;DHT22;21301;43.626;10.580;2023-04-15T12:48:50;19.00;99.90
35129;DHT22;21301;43.626;10.580;2023-04-15T12:51:18;19.70;99.90
35129;DHT22;21301;43.626;10.580;2023-04-15T12:53:46;19.70;99.90
35129;DHT22;21301;43.626;10.580;2023-04-15T12:56:13;19.90;99.90
35129;DHT22;21301;43.626;10.580;2023-04-15T12:58:39;20.20;99.90
35129;DHT22;21301;43.626;10.580;2023-04-15T13:01:04;20.30;99.90
35129;DHT22;21301;43.626;10.580;2023-04-15T13:03:31;20.20;99.90
35129;DHT22;21301;43.626;10.580;2023-04-15T13:05:57;20.30;99.90
35129;DHT22;21301;43.626;10.580;2023-04-15T13:08:22;20.00;99.90
35129;DHT22;21301;43.626;10.580;2023-04-15T13:10:48;20.10;99.90
35129;DHT22;21301;43.626;10.580;2023-04-15T13:13:14;20.00;99.90
35129;DHT22;21301;43.626;10.580;2023-04-15T13:15:40;19.90;99.90
35129;DHT22;21301;43.626;10.580;2023-04-15T13:18:06;19.90;99.90
35129;DHT22;21301;43.626;10.580;2023-04-15T13:20:32;19.60;99.90
35129;DHT22;21301;43.626;10.580;2023-04-15T13:22:58;19.70;99.90
35129;DHT22;21301;43.626;10.580;2023-04-15T13:25:24;19.90;99.90
35129;DHT22;21301;43.626;10.580;2023-04-15T13:27:50;19.90;99.90
35129;DHT22;21301;43.626;10.580;2023-04-15T13:30:16;20.00;99.90
35129;DHT22;21301;43.626;10.580;2023-04-15T13:32:43;20.50;99.90
35129;DHT22;21301;43.626;10.580;2023-04-15T13:35:08;20.90;99.90
35129;DHT22;21301;43.626;10.580;2023-04-15T13:37:34;20.90;99.90
35129;DHT22;21301;43.626;10.580;2023-04-15T13:40:00;20.80;99.90
35129;DHT22;21301;43.626;10.580;2023-04-15T13:42:26;20.70;99.90
35129;DHT22;21301;43.626;10.580;2023-04-15T13:44:52;20.50;99.90
35129;DHT22;21301;43.626;10.580;2023-04-15T13:47:21;20.70;99.90
35129;DHT22;21301;43.626;10.580;2023-04-15T13:49:47;20.80;99.90
35129;DHT22;21301;43.626;10.580;2023-04-15T13:52:13;21.00;99.90
35129;DHT22;21301;43.626;10.580;2023-04-15T13:54:38;20.90;99.90
35129;DHT22;21301;43.626;10.580;2023-04-15T13:57:05;20.80;99.90
35129;DHT22;21301;43.626;10.580;2023-04-15T13:59:32;21.20;99.90
35129;DHT22;21301;43.626;10.580;2023-04-15T14:01:58;21.10;99.70
35129;DHT22;21301;43.626;10.580;2023-04-15T14:04:24;21.20;99.70
35129;DHT22;21301;43.626;10.580;2023-04-15T14:06:50;21.30;99.60
35129;DHT22;21301;43.626;10.580;2023-04-15T14:09:16;21.30;99.00
35129;DHT22;21301;43.626;10.580;2023-04-15T14:11:41;21.20;99.20
35129;DHT22;21301;43.626;10.580;2023-04-15T14:14:07;21.10;98.90
35129;DHT22;21301;43.626;10.580;2023-04-15T14:16:33;20.90;98.60
35129;DHT22;21301;43.626;10.580;2023-04-15T14:18:59;20.70;98.60
35129;DHT22;21301;43.626;10.580;2023-04-15T14:21:25;20.80;98.80
35129;DHT22;21301;43.626;10.580;2023-04-15T14:23:56;20.40;98.70
35129;DHT22;21301;43.626;10.580;2023-04-15T14:26:22;20.30;99.00
35129;DHT22;21301;43.626;10.580;2023-04-15T14:28:48;20.70;99.10
35129;DHT22;21301;43.626;10.580;2023-04-15T14:31:14;20.90;98.70
35129;DHT22;21301;43.626;10.580;2023-04-15T14:33:40;21.10;99.10
35129;DHT22;21301;43.626;10.580;2023-04-15T14:36:06;20.90;99.50
35129;DHT22;21301;43.626;10.580;2023-04-15T14:38:36;20.80;99.10
35129;DHT22;21301;43.626;10.580;2023-04-15T14:41:05;20.20;99.90
35129;DHT22;21301;43.626;10.580;2023-04-15T14:43:31;19.70;99.90
35129;DHT22;21301;43.626;10.580;2023-04-15T14:45:57;19.20;99.90
35129;DHT22;21301;43.626;10.580;2023-04-15T14:48:23;19.00;99.90
35129;DHT22;21301;43.626;10.580;2023-04-15T14:50:49;18.90;99.90
35129;DHT22;21301;43.626;10.580;2023-04-15T14:53:15;18.80;99.90
35129;DHT22;21301;43.626;10.580;2023-04-15T14:55:40;18.40;99.90
35129;DHT22;21301;43.626;10.580;2023-04-15T14:58:06;18.10;99.90
35129;DHT22;21301;43.626;10.580;2023-04-15T15:00:36;17.80;99.90
35129;DHT22;21301;43.626;10.580;2023-04-15T15:03:04;17.80;99.90
35129;DHT22;21301;43.626;10.580;2023-04-15T15:05:44;17.90;99.90
35129;DHT22;21301;43.626;10.580;2023-04-15T15:08:11;17.90;99.90
35129;DHT22;21301;43.626;10.580;2023-04-15T15:10:38;18.00;99.90
35129;DHT22;21301;43.626;10.580;2023-04-15T15:13:06;18.30;99.90
35129;DHT22;21301;43.626;10.580;2023-04-15T15:15:32;18.40;99.90
35129;DHT22;21301;43.626;10.580;2023-04-15T15:17:59;18.30;99.90
35129;DHT22;21301;43.626;10.580;2023-04-15T15:20:25;18.20;99.90
35129;DHT22;21301;43.626;10.580;2023-04-15T15:22:50;18.10;99.90
35129;DHT22;21301;43.626;10.580;2023-04-15T15:25:16;18.20;99.90
35129;DHT22;21301;43.626;10.580;2023-04-15T15:27:43;18.20;99.90
35129;DHT22;21301;43.626;10.580;2023-04-15T15:30:10;17.80;99.90
35129;DHT22;21301;43.626;10.580;2023-04-15T15:32:41;17.70;99.90
35129;DHT22;21301;43.626;10.580;2023-04-15T15:35:07;17.90;99.90
35129;DHT22;21301;43.626;10.580;2023-04-15T15:37:34;18.10;99.90
35129;DHT22;21301;43.626;10.580;2023-04-15T15:40:00;17.80;99.90
35129;DHT22;21301;43.626;10.580;2023-04-15T15:42:26;17.80;99.90
35129;DHT22;21301;43.626;10.580;2023-04-15T15:44:55;17.60;99.90